Stormwatcher's Retreat Logo




                  Temp     Hi    Low   Out    Dew  Wind  Wind   Wind    Hi    Hi   Wind   Heat    THW   THSW                Rain  Solar   Solar Hi Solar   UV    UV    Hi     Heat    Cool    In     In    In     In     In   In Air          Wind  Wind    ISS   Arc.
  Date    Time     Out   Temp   Temp   Hum    Pt. Speed   Dir    Run Speed   Dir  Chill  Index  Index  Index   Bar    Rain  Rate   Rad.  Energy    Rad.  Index  Dose   UV     D-D     D-D    Temp   Hum    Dew   Heat    EMC Density     ET   Samp   Tx   Recept  Int.
------------------------------------------------------------------------------------------------------------------------------------------------------------------------------------------------------------------------------------------------------------------------
 7/18/19 12:10a   62.8   62.9   62.8    91   60.1   1.0     E   0.17   2.0     E   62.8   63.5   63.5   61.4  30.015  0.00  0.00     0     0.00      0     0.0  0.00   0.0   0.015   0.000   76.4    60   61.5   77.1  10.89  .0729    0.000   211    5    100.0   10 
 7/18/19 12:20a   62.8   62.9   62.7    91   60.1   1.0     E   0.17   2.0     E   62.8   63.5   63.5   61.4  30.018  0.00  0.00     0     0.00      0     0.0  0.00   0.0   0.015   0.000   76.5    60   61.6   77.3  10.89  .0729    0.000   211    5    100.0   10 
 7/18/19 12:30a   62.7   62.8   62.7    91   60.0   3.0     E   0.50  11.0   NNW   62.7   63.4   63.4   61.3  30.021  0.02  0.11     0     0.00      0     0.0  0.00   0.0   0.016   0.000   76.5    60   61.6   77.3  10.89  .0729    0.000   210    5    100.0   10 
 7/18/19 12:40a   62.0   62.7   62.0    91   59.3   9.0     N   1.50  14.0     N   60.0   62.5   60.5   58.5  30.026  0.01  0.11     0     0.00      0     0.0  0.00   0.0   0.021   0.000   76.2    60   61.3   76.9  10.90  .0730    0.000   211    5    100.0   10 
 7/18/19 12:50a   61.6   61.9   61.5    91   58.9   7.0    NE   1.17  12.0    NE   61.2   62.1   61.7   59.5  30.030  0.01  0.09     0     0.00      0     0.0  0.00   0.0   0.024   0.000   76.0    60   61.1   76.7  10.91  .0730    0.000   212    5    100.0   10 
 7/18/19  1:00a   61.5   61.5   61.4    91   58.8   6.0   ENE   1.00  11.0    NE   61.4   62.0   61.9   59.7  30.033  0.00  0.04     0     0.00      0     0.0  0.00   0.0   0.024   0.000   75.8    60   60.9   76.5  10.92  .0731    0.001   211    5    100.0   10 
 7/18/19  1:10a   61.4   61.5   61.4    91   58.7   4.0   ENE   0.67  10.0    NE   61.4   61.9   61.9   59.7  30.035  0.00  0.00     0     0.00      0     0.0  0.00   0.0   0.025   0.000   75.7    60   60.8   76.5  10.92  .0731    0.000   213    5    100.0   10 
 7/18/19  1:20a   61.4   61.5   61.4    91   58.7   3.0   ENE   0.50   8.0   ENE   61.4   61.9   61.9   59.7  30.037  0.01  0.00     0     0.00      0     0.0  0.00   0.0   0.025   0.000   75.7    60   60.8   76.5  10.92  .0731    0.000   213    5    100.0   10 
 7/18/19  1:30a   61.5   61.5   61.4    92   59.2   3.0   ENE   0.50   8.0   ENE   61.5   62.0   62.0   59.8  30.037  0.01  0.05     0     0.00      0     0.0  0.00   0.0   0.024   0.000   75.6    60   60.7   76.4  10.93  .0731    0.000   212    5    100.0   10 
 7/18/19  1:40a   61.5   61.5   61.5    92   59.2   3.0   ENE   0.50   7.0   ENE   61.5   62.0   62.0   59.8  30.035  0.00  0.05     0     0.00      0     0.0  0.00   0.0   0.024   0.000   75.6    60   60.7   76.4  10.93  .0731    0.000   213    5    100.0   10 
 7/18/19  1:50a   61.4   61.5   61.4    91   58.7   3.0   ENE   0.50   7.0     E   61.4   61.9   61.9   59.7  30.038  0.00  0.00     0     0.00      0     0.0  0.00   0.0   0.025   0.000   75.6    60   60.7   76.4  10.93  .0731    0.000   214    5    100.0   10 
 7/18/19  2:00a   61.4   61.4   61.4    91   58.7   3.0   ENE   0.50   5.0    NE   61.4   61.9   61.9   59.7  30.037  0.01  0.00     0     0.00      0     0.0  0.00   0.0   0.025   0.000   75.6    60   60.7   76.4  10.93  .0731    0.000   213    5    100.0   10 
 7/18/19  2:10a   61.3   61.4   61.3    91   58.7   2.0   ENE   0.33   6.0     E   61.3   61.8   61.8   59.6  30.038  0.00  0.00     0     0.00      0     0.0  0.00   0.0   0.026   0.000   75.5    60   60.6   76.3  10.93  .0731    0.000   212    5    100.0   10 
 7/18/19  2:20a   61.2   61.4   61.2    91   58.6   3.0   ENE   0.50   9.0   ENE   61.2   61.6   61.6   59.4  30.040  0.00  0.00     0     0.00      0     0.0  0.00   0.0   0.026   0.000   75.5    60   60.6   76.3  10.93  .0731    0.000   213    5    100.0   10 
 7/18/19  2:30a   61.1   61.2   61.1    92   58.8   4.0     E   0.67  11.0     E   61.1   61.6   61.6   59.4  30.038  0.00  0.00     0     0.00      0     0.0  0.00   0.0   0.027   0.000   75.4    60   60.5   76.2  10.93  .0731    0.000   209    5    100.0   10 
 7/18/19  2:40a   61.0   61.1   61.0    92   58.7   3.0     E   0.50   8.0   ESE   61.0   61.4   61.4   59.2  30.040  0.00  0.00     0     0.00      0     0.0  0.00   0.0   0.028   0.000   75.3    60   60.5   76.1  10.94  .0732    0.000   213    5    100.0   10 
 7/18/19  2:50a   60.9   61.0   60.9    92   58.6   3.0     E   0.50   8.0     E   60.9   61.3   61.3   59.1  30.039  0.00  0.00     0     0.00      0     0.0  0.00   0.0   0.028   0.000   75.2    60   60.4   76.1  10.94  .0732    0.000   213    5    100.0   10 
 7/18/19  3:00a   60.8   60.9   60.8    92   58.5   3.0   ENE   0.50   9.0   ENE   60.8   61.2   61.2   59.0  30.035  0.00  0.00     0     0.00      0     0.0  0.00   0.0   0.029   0.000   75.1    60   60.3   76.0  10.95  .0732    0.000   211    5    100.0   10 
 7/18/19  3:10a   60.7   60.8   60.7    91   58.1   3.0     E   0.50  11.0    NE   60.7   61.1   61.1   58.9  30.035  0.00  0.00     0     0.00      0     0.0  0.00   0.0   0.030   0.000   75.1    60   60.3   76.0  10.95  .0732    0.000   212    5    100.0   10 
 7/18/19  3:20a   60.7   60.7   60.7    91   58.1   2.0   ENE   0.33   7.0   ENE   60.7   61.1   61.1   58.9  30.037  0.00  0.00     0     0.00      0     0.0  0.00   0.0   0.030   0.000   75.0    60   60.2   75.9  10.95  .0732    0.000   211    5    100.0   10 
 7/18/19  3:30a   60.7   60.7   60.7    91   58.1   3.0     E   0.50   6.0   ESE   60.7   61.1   61.1   58.9  30.037  0.00  0.00     0     0.00      0     0.0  0.00   0.0   0.030   0.000   75.0    60   60.2   75.9  10.95  .0732    0.000   211    5    100.0   10 
 7/18/19  3:40a   60.7   60.7   60.7    91   58.1   2.0   ENE   0.33   5.0   ENE   60.7   61.1   61.1   58.9  30.038  0.00  0.00     0     0.00      0     0.0  0.00   0.0   0.030   0.000   74.9    60   60.1   75.8  10.95  .0732    0.000   213    5    100.0   10 
 7/18/19  3:50a   60.7   60.7   60.7    91   58.1   2.0   ENE   0.33   6.0     E   60.7   61.1   61.1   58.9  30.040  0.00  0.00     0     0.00      0     0.0  0.00   0.0   0.030   0.000   74.9    60   60.1   75.8  10.95  .0732    0.000   210    5    100.0   10 
 7/18/19  4:00a   60.7   60.7   60.7    91   58.1   3.0   ENE   0.50   9.0   ENE   60.7   61.1   61.1   58.9  30.041  0.00  0.00     0     0.00      0     0.0  0.00   0.0   0.030   0.000   74.9    60   60.1   75.8  10.95  .0732    0.000   211    5    100.0   10 
 7/18/19  4:10a   60.7   60.7   60.7    91   58.1   1.0   ENE   0.17   4.0   ENE   60.7   61.1   61.1   58.9  30.042  0.00  0.00     0     0.00      0     0.0  0.00   0.0   0.030   0.000   74.9    60   60.1   75.8  10.95  .0732    0.000   214    5    100.0   10 
 7/18/19  4:20a   60.7   60.7   60.7    91   58.1   1.0   ENE   0.17   2.0   ENE   60.7   61.1   61.1   58.9  30.047  0.00  0.00     0     0.00      0     0.0  0.00   0.0   0.030   0.000   74.9    60   60.1   75.8  10.95  .0733    0.000   211    5    100.0   10 
 7/18/19  4:30a   60.8   60.8   60.7    91   58.2   1.0   ENE   0.17   5.0   ENE   60.8   61.2   61.2   59.0  30.048  0.00  0.00     0     0.00      0     0.0  0.00   0.0   0.029   0.000   74.9    60   60.1   75.8  10.95  .0733    0.000   212    5    100.0   10 
 7/18/19  4:40a   60.8   60.8   60.7    92   58.5   1.0   ENE   0.17   3.0   ENE   60.8   61.2   61.2   59.0  30.047  0.00  0.00     0     0.00      0     0.0  0.00   0.0   0.029   0.000   74.9    60   60.1   75.8  10.95  .0733    0.000   214    5    100.0   10 
 7/18/19  4:50a   60.8   60.9   60.8    92   58.5   1.0     E   0.17   3.0   ESE   60.8   61.2   61.2   59.0  30.048  0.00  0.00     0     0.00      0     0.0  0.00   0.0   0.029   0.000   74.9    60   60.1   75.8  10.95  .0733    0.000   212    5    100.0   10 
 7/18/19  5:00a   60.8   60.9   60.8    92   58.5   1.0   ENE   0.17   2.0   ENE   60.8   61.2   61.2   59.0  30.050  0.00  0.00     0     0.00      0     0.0  0.00   0.0   0.029   0.000   74.9    60   60.1   75.8  10.95  .0733    0.000   211    5    100.0   10 
 7/18/19  5:10a   60.8   60.8   60.8    92   58.5   1.0   ENE   0.17   3.0   ENE   60.8   61.2   61.2   59.0  30.056  0.00  0.00     0     0.00      0     0.0  0.00   0.0   0.029   0.000   74.9    60   60.1   75.8  10.95  .0733    0.000   213    5    100.0   10 
 7/18/19  5:20a   60.8   60.8   60.8    92   58.5   2.0   ENE   0.33   4.0   ENE   60.8   61.2   61.2   59.0  30.057  0.00  0.00     0     0.00      0     0.0  0.00   0.0   0.029   0.000   74.9    60   60.1   75.8  10.95  .0733    0.000   213    5    100.0   10 
 7/18/19  5:30a   60.8   60.8   60.8    92   58.5   2.0   ENE   0.33   5.0     E   60.8   61.2   61.2   59.0  30.059  0.00  0.00     0     0.00      0     0.0  0.00   0.0   0.029   0.000   74.9    60   60.1   75.8  10.95  .0733    0.000   212    5    100.0   10 
 7/18/19  5:40a   60.7   60.8   60.7    91   58.1   3.0   ENE   0.50   8.0   ENE   60.7   61.1   61.1   58.9  30.058  0.00  0.00     0     0.00      0     0.0  0.00   0.0   0.030   0.000   74.8    60   60.0   75.7  10.95  .0733    0.000   211    5    100.0   10 
 7/18/19  5:50a   60.7   60.8   60.7    91   58.1   2.0   ENE   0.33   3.0   ENE   60.7   61.1   61.1   58.9  30.059  0.00  0.00     0     0.00      0     0.0  0.00   0.0   0.030   0.000   74.8    60   60.0   75.7  10.95  .0733    0.000   213    5    100.0   10 
 7/18/19  6:00a   60.7   60.7   60.7    91   58.1   1.0   ENE   0.17   3.0     E   60.7   61.1   61.1   59.0  30.063  0.00  0.00     4     0.06      5     0.0  0.00   0.0   0.030   0.000   74.8    60   60.0   75.7  10.95  .0733    0.000   212    5    100.0   10 
 7/18/19  6:10a   60.7   60.7   60.7    91   58.1   1.0   ENE   0.17   4.0   ENE   60.7   61.1   61.1   59.1  30.069  0.00  0.00     8     0.11     11     0.0  0.00   0.0   0.030   0.000   74.8    60   60.0   75.7  10.95  .0733    0.000   212    5    100.0   10 
 7/18/19  6:20a   60.6   60.7   60.6    91   58.0   1.0   ENE   0.17   2.0   ENE   60.6   61.0   61.0   59.0  30.072  0.00  0.00    13     0.19     18     0.0  0.00   0.0   0.031   0.000   74.8    60   60.0   75.7  10.95  .0733    0.000   213    5    100.0   10 
 7/18/19  6:30a   60.6   60.6   60.5    91   58.0   0.0   ENE   0.00   1.0   ENE   60.6   61.0   61.0   59.3  30.073  0.00  0.00    24     0.34     32     0.0  0.00   0.0   0.031   0.000   74.8    60   60.0   75.7  10.95  .0733    0.000   211    5    100.0   10 
 7/18/19  6:40a   60.6   60.7   60.6    92   58.3   2.0   ENE   0.33   9.0   ENE   60.6   61.0   61.0   59.7  30.074  0.00  0.00    40     0.57     49     0.0  0.00   0.0   0.031   0.000   74.8    60   60.0   75.7  10.95  .0733    0.000   213    5    100.0   10 
 7/18/19  6:50a   60.5   60.6   60.5    91   57.9   3.0   ENE   0.50   6.0   NNE   60.5   60.9   60.9   62.2  30.077  0.00  0.00    65     0.93     83     0.0  0.00   0.0   0.031   0.000   74.7    60   59.9   75.5  10.96  .0734    0.000   213    5    100.0   10 
 7/18/19  7:00a   60.6   60.6   60.5    92   58.3   3.0   ENE   0.50   8.0   ENE   60.6   61.0   61.0   63.1  30.078  0.00  0.00    83     1.19    104     0.0  0.00   0.0   0.031   0.000   74.6    60   59.8   75.4  10.96  .0734    0.001   213    5    100.0   10 
 7/18/19  7:10a   60.6   60.6   60.5    91   58.0   3.0   ENE   0.50   7.0   ENE   60.6   61.0   61.0   64.5  30.075  0.00  0.00   123     1.76    183     0.0  0.00   0.0   0.031   0.000   74.6    60   59.8   75.4  10.96  .0734    0.000   213    5    100.0   10 
 7/18/19  7:20a   60.9   60.9   60.7    92   58.6   3.0   ENE   0.50   9.0    NE   60.9   61.3   61.3   65.7  30.079  0.00  0.00   149     2.14    262     0.0  0.00   0.0   0.028   0.000   74.6    60   59.8   75.4  10.96  .0734    0.000   213    5    100.0   10 
 7/18/19  7:30a   60.5   60.9   60.5    91   57.9   3.0    NE   0.50   7.0   ENE   60.5   60.9   60.9   61.8  30.082  0.00  0.00    62     0.89     91     0.0  0.00   0.0   0.031   0.000   74.5    60   59.7   75.3  10.96  .0734    0.000   212    5    100.0   10 
 7/18/19  7:40a   60.4   60.5   60.4    91   57.8   3.0   ENE   0.50   7.0   ENE   60.4   60.8   60.8   62.1  30.087  0.00  0.00    74     1.06     90     0.0  0.00   0.0   0.032   0.000   74.5    60   59.7   75.3  10.96  .0734    0.000   213    5    100.0   10 
 7/18/19  7:50a   60.4   60.4   60.3    92   58.1   3.0   ENE   0.50   7.0   ENE   60.4   60.8   60.8   64.2  30.089  0.00  0.00   131     1.88    237     0.0  0.00   0.0   0.032   0.000   74.5    60   59.7   75.3  10.96  .0734    0.000   212    5    100.0   10 
 7/18/19  8:00a   60.3   60.5   60.2    91   57.7   4.0   ENE   0.67  12.0   ENE   60.3   60.6   60.6   63.3  30.091  0.00  0.00   117     1.68    220     0.0  0.00   0.0   0.033   0.000   74.4    60   59.6   75.2  10.96  .0735    0.003   212    5    100.0   10 
 7/18/19  8:10a   60.5   60.5   60.0    91   57.9   3.0   ENE   0.50   9.0   ENE   60.5   60.9   60.9   67.1  30.096  0.00  0.00   228     3.27    350     0.0  0.00   0.0   0.031   0.000   74.4    60   59.6   75.2  10.96  .0735    0.000   213    5    100.0   10 
 7/18/19  8:20a   60.8   60.8   60.5    92   58.5   4.0   ENE   0.67  10.0   ENE   60.8   61.2   61.2   68.3  30.095  0.00  0.00   263     3.77    350     0.0  0.00   0.0   0.029   0.000   74.4    60   59.6   75.2  10.96  .0735    0.000   212    5    100.0   10 
 7/18/19  8:30a   61.2   61.2   60.7    91   58.6   4.0   ENE   0.67   9.0   ENE   61.2   61.6   61.6   70.9  30.095  0.00  0.00   368     5.28    401     0.0  0.00   0.0   0.026   0.000   74.3    60   59.5   75.1  10.96  .0735    0.000   212    5    100.0   10 
 7/18/19  8:40a   61.4   61.4   61.2    91   58.7   4.0   ENE   0.67  11.0   ENE   61.4   61.9   61.9   71.8  30.096  0.00  0.00   419     6.01    436     0.0  0.00   0.0   0.025   0.000   74.3    60   59.5   75.1  10.96  .0735    0.000   213    5    100.0   10 
 7/18/19  8:50a   62.0   62.0   61.4    91   59.3   4.0   ENE   0.67  11.0    NE   62.0   62.5   62.5   72.7  30.094  0.00  0.00   446     6.39    464     0.0  0.00   0.0   0.021   0.000   74.2    60   59.4   74.9  10.97  .0735    0.000   211    5    100.0   10 
 7/18/19  9:00a   62.3   62.3   62.0    90   59.3   4.0     E   0.67   9.0     E   62.3   62.9   62.9   73.4  30.093  0.00  0.00   494     7.08    519     0.0  0.00   0.0   0.019   0.000   74.1    60   59.3   74.8  10.97  .0735    0.008   213    5    100.0   10 
 7/18/19  9:10a   62.2   62.3   62.1    89   58.9   4.0   ENE   0.67   8.0   ENE   62.2   62.7   62.7   70.2  30.095  0.00  0.00   327     4.69    582     0.0  0.00   0.0   0.019   0.000   74.1    60   59.3   74.8  10.97  .0735    0.000   211    5    100.0   10 
 7/18/19  9:20a   63.3   63.3   62.2    89   60.0   2.0   ENE   0.33   7.0   ENE   63.3   64.0   64.0   74.7  30.093  0.00  0.00   591     8.47    612     0.0  0.00   0.0   0.012   0.000   74.1    60   59.3   74.8  10.97  .0735    0.000   210    5    100.0   10 
 7/18/19  9:30a   64.2   64.2   63.4    88   60.6   3.0   ENE   0.50   7.0    NE   64.2   65.0   65.0   76.3  30.094  0.00  0.00   646     9.26    710     0.0  0.00   0.0   0.006   0.000   74.2    60   59.4   74.9  10.97  .0735    0.000   213    5    100.0   10 
 7/18/19  9:40a   64.4   64.4   64.2    87   60.4   5.0    NE   0.83   9.0    NE   64.4   65.2   65.2   77.2  30.095  0.00  0.00   709    10.16    722     0.0  0.00   0.0   0.004   0.000   74.1    60   59.3   74.8  10.97  .0735    0.000   214    5    100.0   10 
 7/18/19  9:50a   64.3   64.5   64.3    86   60.0   5.0    NE   0.83  10.0    NE   64.3   65.0   65.0   77.0  30.102  0.00  0.00   737    10.57    754     0.0  0.00   0.0   0.005   0.000   73.9    60   59.1   74.6  10.97  .0736    0.000   212    5    100.0   10 
 7/18/19 10:00a   63.2   64.3   63.2    85   58.6   4.0    NE   0.67   9.0   NNW   63.2   63.7   63.7   67.3  30.103  0.00  0.00   197     2.82    728     0.0  0.00   0.0   0.012   0.000   73.7    60   58.9   74.3  10.98  .0736    0.011   212    5    100.0   10 
 7/18/19 10:10a   62.1   63.1   62.1    86   57.9   5.0    NE   0.83  11.0    NE   62.1   62.5   62.5   64.0  30.104  0.00  0.00   123     1.76    146     0.0  0.00   0.0   0.020   0.000   73.5    60   58.8   74.1  10.98  .0736    0.000   213    5    100.0   10 
 7/18/19 10:20a   62.3   62.3   62.0    87   58.4   4.0    NE   0.67   9.0    NE   62.3   62.7   62.7   70.1  30.104  0.00  0.00   379     5.43    810     0.0  0.00   0.0   0.019   0.000   73.3    60   58.6   73.8  10.98  .0737    0.000   213    5    100.0   10 
 7/18/19 10:30a   63.1   63.1   62.3    86   58.8   5.0   ENE   0.83   9.0    NE   63.1   63.6   63.6   74.5  30.102  0.00  0.00   635     9.10    896     0.0  0.00   0.0   0.013   0.000   73.3    60   58.6   73.8  10.98  .0737    0.000   213    5    100.0   10 
 7/18/19 10:40a   64.1   64.1   63.2    85   59.5   5.0   ENE   0.83  12.0    NE   64.1   64.7   64.7   75.7  30.098  0.00  0.00   650     9.32    949     0.0  0.00   0.0   0.006   0.000   73.2    60   58.5   73.7  10.99  .0737    0.000   212    5    100.0   10 
 7/18/19 10:50a   64.0   64.2   64.0    83   58.7   7.0    NE   1.17  13.0    NE   64.0   64.6   64.6   75.6  30.101  0.00  0.00   714    10.24    823     0.0  0.00   0.0   0.007   0.000   72.9    60   58.2   73.3  10.99  .0737    0.000   211    5    100.0   10 
 7/18/19 11:00a   64.1   64.1   63.9    84   59.2   8.0    NE   1.33  12.0   NNE   63.3   64.7   63.9   73.9  30.106  0.00  0.00   805    11.54    814     0.0  0.00   0.0   0.006   0.000   72.3    60   57.6   72.4  11.00  .0739    0.012   212    5    100.0   10 
 7/18/19 11:10a   64.5   64.5   64.1    83   59.2   8.0    NE   1.33  12.0   ENE   63.8   65.2   64.5   74.6  30.110  0.00  0.00   819    11.74    824     0.0  0.00   0.0   0.003   0.000   72.1    61   57.9   72.1  11.17  .0739    0.000   213    5    100.0   10 
 7/18/19 11:20a   64.7   64.7   64.5    82   59.1   9.0    NE   1.50  13.0    NE   63.2   65.4   63.9   73.7  30.110  0.00  0.00   830    11.90    838     0.0  0.00   0.0   0.002   0.000   71.6    61   57.4   71.4  11.19  .0740    0.000   210    5    100.0   10 
 7/18/19 11:30a   64.8   64.8   64.6    82   59.2   8.0    NE   1.33  12.0   ENE   64.2   65.5   64.9   75.0  30.111  0.00  0.00   847    12.14    853     0.0  0.00   0.0   0.001   0.000   71.5    61   57.3   71.3  11.19  .0740    0.000   213    5    100.0   10 
 7/18/19 11:40a   65.5   65.5   64.8    81   59.5   8.0   ENE   1.33  11.0   ENE   64.9   66.3   65.7   75.9  30.117  0.00  0.00   857    12.29    863     0.0  0.00   0.0   0.000   0.003   71.3    61   57.2   71.0  11.20  .0741    0.000   212    5    100.0   10 
 7/18/19 11:50a   65.4   65.6   65.4    80   59.1   8.0    NE   1.33  14.0    NE   64.8   66.2   65.6   75.7  30.116  0.00  0.00   872    12.50    879     0.0  0.00   0.0   0.000   0.003   71.0    61   56.9   70.6  11.21  .0741    0.000   212    5    100.0   10 
 7/18/19 12:00p   65.3   65.4   65.2    79   58.6   9.0    NE   1.50  13.0    NE   63.9   66.0   64.6   74.3  30.118  0.00  0.00   884    12.67    889     0.0  0.00   0.0   0.000   0.002   71.0    61   56.9   70.6  11.21  .0741    0.020   210    5    100.0   10 
 7/18/19 12:10p   65.4   65.4   65.3    79   58.7   9.0    NE   1.50  13.0    NE   64.0   66.1   64.7   74.3  30.115  0.00  0.00   896    12.84    902     0.0  0.00   0.0   0.000   0.003   71.1    61   57.0   70.7  11.21  .0741    0.000   213    5    100.0   10 
 7/18/19 12:20p   66.1   66.2   65.4    78   59.0   7.0    NE   1.17  14.0   NNE   66.1   66.9   66.9   77.1  30.113  0.00  0.00   909    13.03    914     0.0  0.00   0.0   0.000   0.008   71.2    61   57.1   70.9  11.20  .0741    0.000   212    5    100.0   10 
 7/18/19 12:30p   65.9   66.1   65.9    78   58.8   8.0    NE   1.33  12.0    NE   65.3   66.6   66.0   75.7  30.112  0.00  0.00   917    13.15    921     0.0  0.00   0.0   0.000   0.006   71.4    61   57.2   71.1  11.19  .0740    0.000   210    5    100.0   10 
 7/18/19 12:40p   66.3   66.3   65.9    77   58.9   9.0    NE   1.50  14.0    NE   65.0   67.0   65.7   74.5  30.113  0.00  0.00   929    13.32    935     0.0  0.00   0.0   0.000   0.009   71.6    61   57.4   71.4  11.19  .0740    0.000   212    5    100.0   10 
 7/18/19 12:50p   66.2   66.4   66.1    75   58.0  10.0   NNE   1.67  14.0   NNE   64.2   66.7   64.7   73.2  30.110  0.00  0.00   933    13.37    939     0.0  0.00   0.0   0.000   0.008   71.7    61   57.5   71.6  11.18  .0740    0.000   211    5    100.0   10 
 7/18/19  1:00p   66.2   66.3   65.9    75   58.0   9.0    NE   1.50  15.0    NE   64.9   66.7   65.4   74.2  30.111  0.00  0.00   938    13.45    940     0.0  0.00   0.0   0.000   0.008   71.7    61   57.5   71.6  11.18  .0740    0.022   213    5    100.0   10 
 7/18/19  1:10p   66.2   66.3   66.1    75   58.0   9.0    NE   1.50  15.0   ENE   64.9   66.7   65.4   74.2  30.111  0.00  0.00   940    13.48    942     0.0  0.00   0.0   0.000   0.008   71.8    61   57.6   71.7  11.18  .0740    0.000   211    5    100.0   10 
 7/18/19  1:20p   66.8   66.8   66.2    74   58.2   9.0    NE   1.50  14.0   NNE   65.5   67.4   66.1   74.9  30.107  0.00  0.00   942    13.50    944     0.0  0.00   0.0   0.000   0.013   71.9    61   57.7   71.8  11.17  .0739    0.000   212    5    100.0   10 
 7/18/19  1:30p   66.9   67.1   66.8    73   58.0   9.0    NE   1.50  15.0   NNE   65.6   67.5   66.2   74.9  30.107  0.00  0.00   940    13.48    944     0.0  0.00   0.0   0.000   0.013   71.8    60   57.2   71.6  11.01  .0740    0.000   213    5    100.0   10 
 7/18/19  1:40p   66.8   66.9   66.7    74   58.2   9.0    NE   1.50  15.0   ENE   65.5   67.4   66.1   74.9  30.106  0.00  0.00   940    13.48    942     0.0  0.00   0.0   0.000   0.013   71.5    61   57.3   71.3  11.19  .0740    0.000   213    5    100.0   10 
 7/18/19  1:50p   66.9   66.9   66.7    75   58.7   9.0   NNE   1.50  14.0    NE   65.6   67.6   66.3   75.2  30.109  0.00  0.00   939    13.46    940     0.0  0.00   0.0   0.000   0.013   71.3    61   57.2   71.0  11.20  .0740    0.000   211    5    100.0   10 
 7/18/19  2:00p   67.2   67.3   67.0    72   57.9   9.0    NE   1.50  16.0   NNE   65.9   67.8   66.5   75.4  30.113  0.00  0.00   936    13.42    942     0.0  0.00   0.0   0.000   0.015   71.2    61   57.1   70.9  11.20  .0741    0.023   214    5    100.0   10 
 7/18/19  2:10p   67.1   67.2   67.0    73   58.2   9.0    NE   1.50  16.0   NNE   65.8   67.7   66.4   75.3  30.113  0.00  0.00   929    13.32    932     0.0  0.00   0.0   0.000   0.015   71.0    61   56.9   70.6  11.21  .0741    0.000   211    5    100.0   10 
 7/18/19  2:20p   67.0   67.1   66.8    73   58.1  11.0    NE   1.83  15.0    NE   64.4   67.6   65.0   73.4  30.111  0.00  0.00   921    13.20    925     0.0  0.00   0.0   0.000   0.014   70.9    62   57.2   70.5  11.33  .0741    0.000   212    5    100.0   10 
 7/18/19  2:30p   67.0   67.1   66.9    72   57.7  10.0    NE   1.67  16.0   ENE   65.0   67.5   65.5   74.2  30.113  0.00  0.00   914    13.10    918     0.0  0.00   0.0   0.000   0.014   70.7    62   57.0   70.3  11.34  .0741    0.000   213    5    100.0   10 
 7/18/19  2:40p   67.5   67.5   67.0    73   58.5  10.0    NE   1.67  15.0    NE   65.5   68.2   66.2   75.0  30.115  0.00  0.00   905    12.97    912     0.0  0.00   0.0   0.000   0.017   70.6    62   56.9   70.2  11.34  .0742    0.000   212    5    100.0   10 
 7/18/19  2:50p   67.7   67.8   67.5    71   58.0  10.0    NE   1.67  17.0   ENE   65.6   68.3   66.2   75.0  30.115  0.00  0.00   893    12.80    900     0.0  0.00   0.0   0.000   0.019   70.5    61   56.4   69.9  11.23  .0742    0.000   212    5    100.0   10 
 7/18/19  3:00p   67.6   67.8   67.5    70   57.5  10.0    NE   1.67  16.0    NE   65.5   68.1   66.0   74.9  30.112  0.00  0.00   881    12.63    889     0.0  0.00   0.0   0.000   0.018   70.5    62   56.9   70.0  11.34  .0742    0.023   213    5    100.0   10 
 7/18/19  3:10p   67.9   67.9   67.5    70   57.8   9.0    NE   1.50  15.0   NNE   66.5   68.5   67.1   76.4  30.110  0.00  0.00   868    12.44    875     0.0  0.00   0.0   0.000   0.020   70.4    61   56.3   69.8  11.23  .0742    0.000   213    5    100.0   10 
 7/18/19  3:20p   68.4   68.4   67.8    70   58.2   8.0    NE   1.33  16.0   NNE   67.7   68.9   68.2   78.0  30.109  0.00  0.00   854    12.24    858     0.0  0.00   0.0   0.000   0.024   70.4    61   56.3   69.8  11.23  .0742    0.000   212    5    100.0   10 
 7/18/19  3:30p   68.3   68.3   67.9    70   58.1   9.0    NE   1.50  15.0    NE   66.9   68.8   67.4   76.9  30.110  0.00  0.00   838    12.01    846     0.0  0.00   0.0   0.000   0.023   70.4    61   56.3   69.8  11.23  .0742    0.000   214    5    100.0   10 
 7/18/19  3:40p   68.1   68.3   68.1    70   57.9   9.0    NE   1.50  15.0   NNE   66.7   68.7   67.3   76.8  30.110  0.00  0.00   822    11.78    830     0.0  0.00   0.0   0.000   0.022   70.3    61   56.2   69.7  11.24  .0742    0.000   211    5    100.0   10 
 7/18/19  3:50p   67.7   68.1   67.6    71   58.0   9.0    NE   1.50  15.0    NE   66.3   68.3   66.9   76.5  30.103  0.00  0.00   804    11.53    812     0.0  0.00   0.0   0.000   0.019   70.2    62   56.6   69.7  11.35  .0742    0.000   212    5    100.0   10 
 7/18/19  4:00p   68.6   68.6   67.7    71   58.8   9.0    NE   1.50  15.0    NE   67.2   69.2   67.8   77.5  30.104  0.00  0.00   784    11.24    793     0.0  0.00   0.0   0.000   0.025   70.1    62   56.5   69.5  11.35  .0742    0.021   214    5    100.0   10 
 7/18/19  4:10p   68.5   68.6   68.5    70   58.3   9.0    NE   1.50  14.0   ENE   67.1   69.0   67.6   77.3  30.103  0.00  0.00   762    10.92    773     0.0  0.00   0.0   0.000   0.024   70.1    62   56.5   69.5  11.35  .0742    0.000   212    5    100.0   10 
 7/18/19  4:20p   68.4   68.6   68.4    70   58.2   8.0    NE   1.33  15.0    NE   67.7   68.9   68.2   78.3  30.105  0.00  0.00   742    10.64    752     0.0  0.00   0.0   0.000   0.024   70.2    62   56.6   69.7  11.35  .0742    0.000   212    5    100.0   10 
 7/18/19  4:30p   68.1   68.4   68.0    70   57.9   9.0    NE   1.50  16.0   NNE   66.7   68.7   67.3   77.1  30.105  0.00  0.00   718    10.29    729     0.0  0.00   0.0   0.000   0.022   70.1    63   56.9   69.6  11.55  .0742    0.000   214    5    100.0   10 
 7/18/19  4:40p   68.1   68.1   68.0    70   57.9   9.0    NE   1.50  16.0    NE   66.7   68.7   67.3   77.1  30.106  0.00  0.00   696     9.98    708     0.0  0.00   0.0   0.000   0.022   70.0    63   56.8   69.5  11.55  .0742    0.000   213    5    100.0   10 
 7/18/19  4:50p   68.1   68.1   67.9    70   57.9   8.0    NE   1.33  14.0     N   67.4   68.7   68.0   78.2  30.106  0.00  0.00   672     9.63    684     0.0  0.00   0.0   0.000   0.022   69.9    63   56.7   69.4  11.55  .0742    0.000   211    5    100.0   10 
 7/18/19  5:00p   67.9   68.2   67.9    70   57.8   8.0    NE   1.33  15.0   NNE   67.2   68.5   67.8   78.0  30.104  0.00  0.00   645     9.25    659     0.0  0.00   0.0   0.000   0.020   69.8    63   56.6   69.3  11.55  .0743    0.018   213    5    100.0   10 
 7/18/19  5:10p   68.1   68.1   67.7    70   57.9   8.0   ENE   1.33  14.0    NE   67.4   68.7   68.0   78.2  30.101  0.00  0.00   619     8.87    631     0.0  0.00   0.0   0.000   0.022   69.8    63   56.6   69.3  11.55  .0742    0.000   212    5    100.0   10 
 7/18/19  5:20p   68.1   68.1   67.9    69   57.5   8.0   ENE   1.33  13.0    NE   67.4   68.6   67.9   78.1  30.100  0.00  0.00   593     8.50    606     0.0  0.00   0.0   0.000   0.022   69.7    63   56.5   69.3  11.56  .0743    0.000   209    5    100.0   10 
 7/18/19  5:30p   68.3   68.3   68.1    69   57.7   7.0    NE   1.17  13.0    NE   68.3   68.8   68.8   79.5  30.098  0.00  0.00   566     8.11    580     0.0  0.00   0.0   0.000   0.023   69.7    63   56.5   69.3  11.56  .0743    0.000   213    5    100.0   10 
 7/18/19  5:40p   67.7   68.3   67.7    70   57.6   7.0    NE   1.17  14.0    NE   67.7   68.2   68.2   78.8  30.098  0.00  0.00   536     7.68    550     0.0  0.00   0.0   0.000   0.019   69.9    63   56.7   69.4  11.55  .0742    0.000   212    5    100.0   10 
 7/18/19  5:50p   67.2   67.7   67.2    70   57.1   9.0    NE   1.50  14.0    NE   65.9   67.6   66.3   76.0  30.098  0.00  0.00   509     7.30    520     0.0  0.00   0.0   0.000   0.015   70.0    63   56.8   69.5  11.55  .0742    0.000   213    5    100.0   10 
 7/18/19  6:00p   67.3   67.4   67.2    70   57.2   8.0   ENE   1.33  14.0    NE   66.7   67.8   67.2   77.2  30.097  0.00  0.00   480     6.88    494     0.0  0.00   0.0   0.000   0.016   70.1    62   56.5   69.5  11.35  .0742    0.014   213    5    100.0   10 
 7/18/19  6:10p   66.6   67.3   66.6    70   56.5   8.0    NE   1.33  13.0    NE   66.0   66.9   66.3   76.0  30.095  0.00  0.00   450     6.45    462     0.0  0.00   0.0   0.000   0.011   70.1    62   56.5   69.5  11.35  .0742    0.000   213    5    100.0   10 
 7/18/19  6:20p   66.7   66.7   66.5    71   57.0   8.0    NE   1.33  15.0    NE   66.1   67.1   66.5   76.1  30.095  0.00  0.00   422     6.05    431     0.0  0.00   0.0   0.000   0.012   70.1    62   56.5   69.5  11.35  .0742    0.000   211    5    100.0   10 
 7/18/19  6:30p   66.5   66.7   66.5    71   56.8   8.0    NE   1.33  13.0    NE   65.9   66.9   66.3   75.5  30.093  0.00  0.00   390     5.59    406     0.0  0.00   0.0   0.000   0.010   70.2    62   56.6   69.7  11.35  .0742    0.000   213    5    100.0   10 
 7/18/19  6:40p   66.1   66.5   66.0    72   56.8   8.0   ENE   1.33  14.0   ENE   65.5   66.4   65.8   74.6  30.095  0.00  0.00   358     5.13    374     0.0  0.00   0.0   0.000   0.008   70.1    62   56.5   69.5  11.35  .0742    0.000   212    5    100.0   10 
 7/18/19  6:50p   65.7   66.0   65.7    72   56.4   9.0    NE   1.50  14.0    NE   64.4   66.0   64.7   72.9  30.090  0.00  0.00   329     4.72    341     0.0  0.00   0.0   0.000   0.005   70.1    62   56.5   69.5  11.35  .0742    0.000   214    5    100.0   10 
 7/18/19  7:00p   65.6   65.7   65.6    71   55.9   8.0   ENE   1.33  13.0   ENE   65.0   65.8   65.2   73.2  30.088  0.00  0.00   299     4.29    313     0.0  0.00   0.0   0.000   0.004   69.9    62   56.3   69.3  11.35  .0742    0.010   212    5    100.0   10 
 7/18/19  7:10p   65.3   65.6   65.3    72   56.0   8.0   ENE   1.33  14.0    NE   64.7   65.5   64.9   72.1  30.090  0.00  0.00   266     3.81    281     0.0  0.00   0.0   0.000   0.002   69.6    62   56.0   69.1  11.36  .0743    0.000   212    5    100.0   10 
 7/18/19  7:20p   64.9   65.3   64.9    72   55.7   8.0   ENE   1.33  15.0    NE   64.3   65.0   64.4   70.8  30.092  0.00  0.00   235     3.37    248     0.0  0.00   0.0   0.001   0.000   69.3    63   56.2   68.9  11.56  .0743    0.000   213    5    100.0   10 
 7/18/19  7:30p   64.3   64.9   64.3    72   55.1   9.0   ENE   1.50  14.0   ENE   62.8   64.3   62.8   67.8  30.091  0.00  0.00   197     2.82    216     0.0  0.00   0.0   0.005   0.000   69.0    63   55.9   68.7  11.57  .0744    0.000   212    5    100.0   10 
 7/18/19  7:40p   64.3   64.4   64.3    73   55.5   8.0   ENE   1.33  16.0   NNE   63.6   64.3   63.6   67.6  30.093  0.00  0.00   159     2.28    178     0.0  0.00   0.0   0.005   0.000   68.8    63   55.7   68.6  11.57  .0744    0.000   212    5    100.0   10 
 7/18/19  7:50p   64.0   64.3   64.0    73   55.2   8.0   ENE   1.33  13.0   ENE   63.2   64.0   63.2   66.2  30.095  0.00  0.00   130     1.86    142     0.0  0.00   0.0   0.007   0.000   68.8    64   56.1   68.7  11.67  .0744    0.000   214    5    100.0   10 
 7/18/19  8:00p   63.6   64.0   63.6    74   55.2   8.0    NE   1.33  15.0    NE   62.8   63.6   62.8   62.1  30.096  0.00  0.00    99     1.42    114     0.0  0.00   0.0   0.010   0.000   68.7    64   56.0   68.6  11.68  .0744    0.006   212    5    100.0   10 
 7/18/19  8:10p   63.0   63.5   63.0    74   54.6   9.0   ENE   1.50  15.0    NE   61.2   62.9   61.1   59.9  30.095  0.00  0.00    71     1.02     83     0.0  0.00   0.0   0.014   0.000   68.6    64   55.9   68.5  11.68  .0744    0.000   213    5    100.0   10 
 7/18/19  8:20p   62.7   63.0   62.7    75   54.7   9.0   ENE   1.50  14.0   ENE   60.8   62.6   60.7   59.1  30.094  0.00  0.00    52     0.75     58     0.0  0.00   0.0   0.016   0.000   68.4    64   55.7   68.4  11.68  .0745    0.000   213    5    100.0   10 
 7/18/19  8:30p   62.2   62.7   62.1    75   54.2   9.0   ENE   1.50  15.0   ENE   60.2   62.0   60.0   58.0  30.095  0.00  0.00    32     0.46     40     0.0  0.00   0.0   0.019   0.000   68.2    64   55.6   68.2  11.69  .0745    0.000   212    5    100.0   10 
 7/18/19  8:40p   61.8   62.1   61.7    75   53.8   7.0   ENE   1.17  13.0    NE   61.4   61.6   61.2   58.7  30.091  0.00  0.00    18     0.26     25     0.0  0.00   0.0   0.022   0.000   68.1    64   55.5   68.2  11.69  .0745    0.000   212    5    100.0   10 
 7/18/19  8:50p   61.2   61.7   61.2    76   53.6   7.0   ENE   1.17  14.0    NE   60.7   61.0   60.5   57.8  30.094  0.00  0.00     9     0.13     12     0.0  0.00   0.0   0.026   0.000   68.1    64   55.5   68.2  11.69  .0745    0.000   212    5    100.0   10 
 7/18/19  9:00p   60.8   61.2   60.8    76   53.2   6.0   ENE   1.00  13.0    NE   60.6   60.5   60.3   57.4  30.097  0.00  0.00     2     0.03      5     0.0  0.00   0.0   0.029   0.000   68.5    64   55.8   68.4  11.68  .0745    0.002   213    5    100.0   10 
 7/18/19  9:10p   60.5   60.8   60.5    76   52.9   6.0   ENE   1.00  11.0   ENE   60.2   60.2   59.9   56.9  30.095  0.00  0.00     0     0.00      0     0.0  0.00   0.0   0.031   0.000   69.0    63   55.9   68.7  11.57  .0744    0.000   213    5    100.0   10 
 7/18/19  9:20p   60.4   60.5   60.4    76   52.8   5.0   ENE   0.83  11.0   NNE   60.4   60.1   60.1   57.1  30.096  0.00  0.00     0     0.00      0     0.0  0.00   0.0   0.032   0.000   69.2    63   56.1   68.9  11.57  .0743    0.000   211    5    100.0   10 
 7/18/19  9:30p   60.2   60.4   60.2    76   52.6   4.0   ENE   0.67  10.0    NE   60.2   59.9   59.9   56.9  30.101  0.00  0.00     0     0.00      0     0.0  0.00   0.0   0.033   0.000   69.6    63   56.4   69.2  11.56  .0743    0.000   212    5    100.0   10 
 7/18/19  9:40p   59.9   60.2   59.9    77   52.7   4.0   ENE   0.67   9.0   ENE   59.9   59.6   59.6   56.6  30.101  0.00  0.00     0     0.00      0     0.0  0.00   0.0   0.035   0.000   69.8    63   56.6   69.3  11.55  .0742    0.000   212    5    100.0   10 
 7/18/19  9:50p   59.7   59.9   59.7    77   52.5   4.0   ENE   0.67  10.0     E   59.7   59.4   59.4   56.4  30.102  0.00  0.00     0     0.00      0     0.0  0.00   0.0   0.037   0.000   70.0    62   56.4   69.4  11.35  .0742    0.000   212    5    100.0   10 
 7/18/19 10:00p   59.5   59.7   59.5    77   52.3   3.0   ENE   0.50  10.0   ENE   59.5   59.2   59.2   56.2  30.102  0.00  0.00     0     0.00      0     0.0  0.00   0.0   0.038   0.000   70.2    62   56.6   69.7  11.35  .0742    0.001   209    5    100.0   10 
 7/18/19 10:10p   59.4   59.6   59.4    78   52.5   3.0   ENE   0.50   9.0   ENE   59.4   59.1   59.1   56.1  30.102  0.00  0.00     0     0.00      0     0.0  0.00   0.0   0.039   0.000   70.4    62   56.8   69.9  11.34  .0742    0.000   210    5    100.0   10 
 7/18/19 10:20p   59.3   59.4   59.3    78   52.4   3.0   ENE   0.50   9.0   ENE   59.3   59.0   59.0   56.0  30.102  0.00  0.00     0     0.00      0     0.0  0.00   0.0   0.040   0.000   70.5    62   56.9   70.0  11.34  .0741    0.000   213    5    100.0   10 
 7/18/19 10:30p   59.3   59.3   59.3    78   52.4   4.0   ENE   0.67   8.0   ENE   59.3   59.0   59.0   56.0  30.101  0.00  0.00     0     0.00      0     0.0  0.00   0.0   0.040   0.000   70.6    62   56.9   70.2  11.34  .0741    0.000   211    5    100.0   10 
 7/18/19 10:40p   59.3   59.3   59.2    79   52.8   4.0   ENE   0.67   9.0   ENE   59.3   59.1   59.1   56.1  30.099  0.00  0.00     0     0.00      0     0.0  0.00   0.0   0.040   0.000   70.7    62   57.0   70.3  11.34  .0741    0.000   210    5    100.0   10 
 7/18/19 10:50p   59.3   59.3   59.3    79   52.8   4.0   ENE   0.67  10.0   ENE   59.3   59.1   59.1   56.1  30.101  0.00  0.00     0     0.00      0     0.0  0.00   0.0   0.040   0.000   70.7    62   57.0   70.3  11.34  .0741    0.000   213    5    100.0   10 
 7/18/19 11:00p   59.2   59.3   59.2    79   52.7   4.0   ENE   0.67  11.0     E   59.2   59.0   59.0   56.0  30.100  0.00  0.00     0     0.00      0     0.0  0.00   0.0   0.040   0.000   70.8    62   57.1   70.4  11.33  .0741    0.001   213    5    100.0   10 
 7/18/19 11:10p   59.1   59.2   59.1    79   52.6   4.0   ENE   0.67  11.0   ENE   59.1   58.8   58.8   55.8  30.100  0.00  0.00     0     0.00      0     0.0  0.00   0.0   0.041   0.000   70.9    61   56.8   70.5  11.21  .0741    0.000   213    5    100.0   10 
 7/18/19 11:20p   59.0   59.1   59.0    79   52.5   3.0   ENE   0.50   9.0   ENE   59.0   58.7   58.7   55.7  30.101  0.00  0.00     0     0.00      0     0.0  0.00   0.0   0.042   0.000   70.9    61   56.8   70.5  11.21  .0741    0.000   214    5    100.0   10 
 7/18/19 11:30p   59.0   59.0   58.9    79   52.5   4.0   ENE   0.67  11.0   ENE   59.0   58.7   58.7   55.7  30.101  0.00  0.00     0     0.00      0     0.0  0.00   0.0   0.042   0.000   70.9    61   56.8   70.5  11.21  .0741    0.000   211    5    100.0   10 
 7/18/19 11:40p   59.0   59.0   59.0    79   52.5   5.0   ENE   0.83  11.0     E   58.8   58.7   58.5   55.5  30.101  0.00  0.00     0     0.00      0     0.0  0.00   0.0   0.042   0.000   71.0    61   56.9   70.6  11.21  .0741    0.000   213    5    100.0   10 
 7/18/19 11:50p   59.2   59.2   59.0    79   52.7   5.0     E   0.83  17.0   ENE   59.0   59.0   58.8   55.8  30.100  0.00  0.00     0     0.00      0     0.0  0.00   0.0   0.040   0.000   70.9    61   56.8   70.5  11.21  .0741    0.000   211    5    100.0   10 
 7/19/19 12:00a   59.3   59.3   59.2    79   52.8   5.0   ENE   0.83  11.0   ENE   59.2   59.1   59.0   56.0  30.103  0.00  0.00     0     0.00      0     0.0  0.00   0.0   0.040   0.000   71.0    61   56.9   70.6  11.21  .0741    0.001   212    5    100.0   10 
 7/19/19 12:10a   59.2   59.3   59.2    79   52.7   5.0   ENE   0.83  13.0    NE   59.0   59.0   58.8   55.8  30.104  0.00  0.00     0     0.00      0     0.0  0.00   0.0   0.040   0.000   71.0    61   56.9   70.6  11.21  .0741    0.000   212    5    100.0   10 
 7/19/19 12:20a   59.2   59.2   59.1    79   52.7   5.0     E   0.83  12.0   ENE   59.0   59.0   58.8   55.8  30.104  0.00  0.00     0     0.00      0     0.0  0.00   0.0   0.040   0.000   71.0    61   56.9   70.6  11.21  .0741    0.000   212    5    100.0   10 
 7/19/19 12:30a   59.2   59.2   59.1    79   52.7   6.0     E   1.00  13.0   ENE   58.6   59.0   58.4   55.4  30.101  0.00  0.00     0     0.00      0     0.0  0.00   0.0   0.040   0.000   70.9    61   56.8   70.5  11.21  .0741    0.000   213    5    100.0   10 
 7/19/19 12:40a   59.2   59.3   59.2    79   52.7   6.0     E   1.00  11.0   ESE   58.6   59.0   58.4   55.4  30.100  0.00  0.00     0     0.00      0     0.0  0.00   0.0   0.040   0.000   70.9    61   56.8   70.5  11.21  .0741    0.000   209    5    100.0   10 
 7/19/19 12:50a   59.2   59.2   59.1    79   52.7   6.0   ENE   1.00  12.0   ENE   58.6   59.0   58.4   55.4  30.104  0.00  0.00     0     0.00      0     0.0  0.00   0.0   0.040   0.000   70.9    60   56.3   70.4  11.03  .0741    0.000   210    5    100.0   10 
 7/19/19  1:00a   59.2   59.2   59.1    79   52.7   6.0     E   1.00  12.0   ENE   58.6   59.0   58.4   55.4  30.103  0.00  0.00     0     0.00      0     0.0  0.00   0.0   0.040   0.000   70.9    60   56.3   70.4  11.03  .0741    0.001   212    5    100.0   10 
 7/19/19  1:10a   59.1   59.2   59.1    79   52.6   6.0     E   1.00  13.0   ENE   58.5   58.8   58.2   55.2  30.102  0.00  0.00     0     0.00      0     0.0  0.00   0.0   0.041   0.000   70.8    60   56.2   70.2  11.03  .0741    0.000   212    5    100.0   10 
 7/19/19  1:20a   59.1   59.1   59.1    78   52.2   6.0     E   1.00  15.0   ENE   58.5   58.8   58.2   55.2  30.098  0.00  0.00     0     0.00      0     0.0  0.00   0.0   0.041   0.000   70.8    60   56.2   70.2  11.03  .0741    0.000   212    5    100.0   10 
 7/19/19  1:30a   59.1   59.1   59.1    78   52.2   7.0     E   1.17  13.0     E   58.1   58.8   57.8   54.8  30.097  0.00  0.00     0     0.00      0     0.0  0.00   0.0   0.041   0.000   70.8    60   56.2   70.2  11.03  .0741    0.000   210    5    100.0   10 
 7/19/19  1:40a   59.0   59.1   59.0    78   52.1   6.0     E   1.00  22.0    NE   58.4   58.7   58.1   55.1  30.096  0.00  0.00     0     0.00      0     0.0  0.00   0.0   0.042   0.000   70.7    60   56.1   70.1  11.04  .0741    0.000   213    5    100.0   10 
 7/19/19  1:50a   59.0   59.0   59.0    78   52.1   7.0   ENE   1.17  13.0   ENE   58.0   58.7   57.7   54.7  30.097  0.00  0.00     0     0.00      0     0.0  0.00   0.0   0.042   0.000   70.7    60   56.1   70.1  11.04  .0741    0.000   213    5    100.0   10 
 7/19/19  2:00a   59.0   59.0   59.0    77   51.8   6.0     E   1.00  17.0    NE   58.4   58.6   58.0   55.0  30.097  0.00  0.00     0     0.00      0     0.0  0.00   0.0   0.042   0.000   70.6    60   56.0   70.0  11.04  .0741    0.001   212    5    100.0   10 
 7/19/19  2:10a   59.0   59.0   59.0    77   51.8   7.0     E   1.17  14.0   ENE   58.0   58.6   57.6   54.6  30.100  0.00  0.00     0     0.00      0     0.0  0.00   0.0   0.042   0.000   70.5    60   55.9   69.8  11.04  .0742    0.000   208    5    100.0   10 
 7/19/19  2:20a   59.0   59.1   59.0    77   51.8   6.0     E   1.00  16.0    NE   58.4   58.6   58.0   55.0  30.102  0.00  0.00     0     0.00      0     0.0  0.00   0.0   0.042   0.000   70.5    60   55.9   69.8  11.04  .0742    0.000   213    5    100.0   10 
 7/19/19  2:30a   58.9   59.0   58.9    77   51.7   7.0     E   1.17  13.0   ENE   57.9   58.5   57.5   54.5  30.101  0.00  0.00     0     0.00      0     0.0  0.00   0.0   0.042   0.000   70.5    60   55.9   69.8  11.04  .0742    0.000   211    5    100.0   10 
 7/19/19  2:40a   58.9   58.9   58.9    77   51.7   7.0     E   1.17  13.0   ENE   57.9   58.5   57.5   54.5  30.100  0.00  0.00     0     0.00      0     0.0  0.00   0.0   0.042   0.000   70.5    60   55.9   69.8  11.04  .0742    0.000   213    5    100.0   10 
 7/19/19  2:50a   58.8   58.9   58.8    76   51.2   6.0     E   1.00  12.0   ENE   58.2   58.4   57.8   54.8  30.102  0.00  0.00     0     0.00      0     0.0  0.00   0.0   0.043   0.000   70.4    59   55.4   69.6  10.93  .0742    0.000   211    5    100.0   10 
Email: AdamSPAM@StormwatchersRetreat.com (To send me email remove the word 'SPAM' from my email address.)